Time;durP1;ratioP1;P1;durP2;ratioP2;P2;SDS_P1;SDS_P2;PMS_P1;PMS_P2;Temp;Humidity;BMP_temperature;BMP_pressure;BME280_temperature;BME280_humidity;BME280_pressure;Samples;Min_cycle;Max_cycle;Signal;HPM_P1;HPM_P2
2023/08/26 00:00:29;;;;;;;65.80;62.53;;;;;;;;;;5101336;27;20047;-68
2023/08/26 00:02:56;;;;;;;62.08;58.90;;;;;;;;;;5103781;28;20351;-69
2023/08/26 00:05:21;;;;;;;74.90;71.15;;;;;;;;;;5096777;28;20507;-73
2023/08/26 00:07:46;;;;;;;70.88;67.28;;;;;;;;;;5102423;28;20136;-74
2023/08/26 00:10:12;;;;;;;65.25;61.95;;;;;;;;;;5103026;28;20450;-74
2023/08/26 00:12:37;;;;;;;59.15;56.17;;;;;;;;;;5099819;27;20035;-74
2023/08/26 00:15:03;;;;;;;60.30;57.30;;;;;;;;;;5103364;28;20039;-72
2023/08/26 00:17:29;;;;;;;61.45;58.35;;;;;;;;;;5097119;27;20047;-73
2023/08/26 00:19:54;;;;;;;62.35;59.15;;;;;;;;;;5103224;28;20028;-72
2023/08/26 00:22:20;;;;;;;60.75;57.72;;;;;;;;;;5100972;28;20462;-74
2023/08/26 00:24:47;;;;;;;60.30;57.30;;;;;;;;;;5101647;28;20165;-74
2023/08/26 00:27:13;;;;;;;57.47;54.53;;;;;;;;;;5080604;28;20027;-74
2023/08/26 00:29:39;;;;;;;61.42;58.28;;;;;;;;;;5098882;27;20036;-69
2023/08/26 00:32:05;;;;;;;58.50;55.58;;;;;;;;;;5069009;28;20043;-73
2023/08/26 00:34:30;;;;;;;49.97;47.22;;;;;;;;;;5078203;27;20019;-70
2023/08/26 00:36:56;;;;;;;46.60;44.15;;;;;;;;;;5083616;28;20618;-70
2023/08/26 00:39:21;;;;;;;45.03;42.70;;;;;;;;;;5065345;27;20035;-69
2023/08/26 00:41:46;;;;;;;52.30;49.67;;;;;;;;;;5101761;28;20031;-69
2023/08/26 00:44:12;;;;;;;53.47;50.75;;;;;;;;;;5102035;28;20473;-73
2023/08/26 00:46:37;;;;;;;49.42;46.92;;;;;;;;;;5095461;28;20145;-74
2023/08/26 00:49:03;;;;;;;50.42;47.90;;;;;;;;;;5102332;28;20059;-69
2023/08/26 00:51:29;;;;;;;51.88;49.25;;;;;;;;;;5096610;28;21032;-68
2023/08/26 00:53:55;;;;;;;51.15;48.60;;;;;;;;;;5102905;28;20103;-73
2023/08/26 00:56:22;;;;;;;56.85;52.55;;;;;;;;;;5095756;28;20073;-71
2023/08/26 00:58:48;;;;;;;54.45;51.72;;;;;;;;;;5099177;28;20359;-72
2023/08/26 01:01:14;;;;;;;58.83;55.75;;;;;;;;;;5101472;28;20170;-72
2023/08/26 01:03:39;;;;;;;57.45;54.55;;;;;;;;;;5096356;27;20383;-72
2023/08/26 01:06:05;;;;;;;46.30;43.95;;;;;;;;;;5102016;28;20031;-72
2023/08/26 01:08:31;;;;;;;48.42;46.00;;;;;;;;;;5078931;28;20020;-71
2023/08/26 01:11:07;;;;;;;50.22;47.67;;;;;;;;;;5101299;28;20035;-71
2023/08/26 01:13:50;;;;;;;50.17;47.60;;;;;;;;;;5094013;28;20126;-72
2023/08/26 01:16:16;;;;;;;52.63;49.88;;;;;;;;;;5099165;28;20673;-71
2023/08/26 01:18:43;;;;;;;48.30;45.83;;;;;;;;;;5080032;28;20515;-69
2023/08/26 01:21:11;;;;;;;51.72;49.10;;;;;;;;;;5099843;28;20043;-69
2023/08/26 01:23:42;;;;;;;53.88;51.13;;;;;;;;;;5094928;28;20436;-69
2023/08/26 01:26:08;;;;;;;51.83;49.20;;;;;;;;;;5101125;28;20589;-70
2023/08/26 01:28:33;;;;;;;53.28;50.28;;;;;;;;;;5077724;28;20032;-71
2023/08/26 01:31:04;;;;;;;51.95;49.25;;;;;;;;;;5095373;28;20123;-67
2023/08/26 01:33:35;;;;;;;50.00;47.47;;;;;;;;;;5102372;28;20030;-68
2023/08/26 01:36:03;;;;;;;52.60;49.92;;;;;;;;;;5078705;28;20270;-69
2023/08/26 01:38:29;;;;;;;53.20;50.50;;;;;;;;;;5099604;28;20051;-68
2023/08/26 01:40:56;;;;;;;53.15;50.47;;;;;;;;;;5093837;28;20127;-71
2023/08/26 01:43:23;;;;;;;53.22;50.53;;;;;;;;;;5101149;28;20510;-71
2023/08/26 01:45:50;;;;;;;55.97;53.15;;;;;;;;;;5096874;28;20082;-71
2023/08/26 01:48:16;;;;;;;53.55;50.85;;;;;;;;;;5096805;28;21169;-71
2023/08/26 01:50:41;;;;;;;54.53;51.72;;;;;;;;;;5101467;28;20110;-67
2023/08/26 01:53:08;;;;;;;48.80;46.33;;;;;;;;;;5093551;28;20451;-71
2023/08/26 01:55:34;;;;;;;49.58;46.92;;;;;;;;;;5079220;28;20344;-68
2023/08/26 01:57:59;;;;;;;50.65;48.10;;;;;;;;;;5101315;28;20100;-70
2023/08/26 02:00:24;;;;;;;54.60;51.83;;;;;;;;;;5080704;28;20039;-68
2023/08/26 02:02:50;;;;;;;53.08;50.33;;;;;;;;;;5104280;28;20046;-68
2023/08/26 02:05:15;;;;;;;52.28;49.60;;;;;;;;;;5100487;28;20023;-69
2023/08/26 02:07:42;;;;;;;53.30;50.63;;;;;;;;;;5102836;28;20361;-70
2023/08/26 02:10:08;;;;;;;51.83;49.20;;;;;;;;;;5101493;27;20042;-69
2023/08/26 02:12:33;;;;;;;50.60;48.03;;;;;;;;;;5101801;28;20388;-69
2023/08/26 02:15:01;;;;;;;51.45;48.78;;;;;;;;;;5103197;28;20036;-69
2023/08/26 02:17:26;;;;;;;47.15;44.75;;;;;;;;;;5096880;28;20032;-69
2023/08/26 02:19:52;;;;;;;52.65;49.97;;;;;;;;;;5105036;28;20164;-68
2023/08/26 02:22:17;;;;;;;52.92;50.15;;;;;;;;;;5099037;27;20032;-68
2023/08/26 02:24:42;;;;;;;51.05;48.45;;;;;;;;;;5105257;28;20026;-68
2023/08/26 02:27:08;;;;;;;45.35;43.03;;;;;;;;;;5104338;28;20039;-69
2023/08/26 02:29:33;;;;;;;48.38;45.92;;;;;;;;;;5098770;28;20508;-68
2023/08/26 02:31:58;;;;;;;46.70;44.30;;;;;;;;;;5103144;28;20032;-68
2023/08/26 02:34:25;;;;;;;48.65;46.10;;;;;;;;;;5095551;27;20533;-68
2023/08/26 02:36:51;;;;;;;48.40;45.95;;;;;;;;;;5105402;28;20623;-68
2023/08/26 02:39:17;;;;;;;47.40;44.88;;;;;;;;;;5100849;28;20106;-68
2023/08/26 02:41:42;;;;;;;45.05;42.72;;;;;;;;;;5104217;27;20039;-69
2023/08/26 02:44:07;;;;;;;48.83;46.35;;;;;;;;;;5103287;28;20027;-69
2023/08/26 02:46:33;;;;;;;48.50;45.88;;;;;;;;;;5097725;27;20039;-69
2023/08/26 02:48:58;;;;;;;50.92;48.20;;;;;;;;;;5083327;28;20031;-69
2023/08/26 02:51:23;;;;;;;47.95;45.40;;;;;;;;;;5103588;28;20101;-69
2023/08/26 02:53:49;;;;;;;47.95;45.45;;;;;;;;;;5097343;27;20622;-69
2023/08/26 02:56:14;;;;;;;44.78;42.47;;;;;;;;;;5104885;28;20039;-70
2023/08/26 02:58:40;;;;;;;45.67;43.33;;;;;;;;;;5098181;28;20040;-69
2023/08/26 03:01:06;;;;;;;45.78;43.38;;;;;;;;;;5101651;28;20038;-70
2023/08/26 03:03:32;;;;;;;46.80;44.42;;;;;;;;;;5105260;28;20031;-69
2023/08/26 03:05:57;;;;;;;44.05;41.83;;;;;;;;;;5060744;28;20553;-70
2023/08/26 03:08:24;;;;;;;45.22;42.83;;;;;;;;;;5101558;28;20362;-69
2023/08/26 03:10:58;;;;;;;48.20;45.72;;;;;;;;;;5095533;28;20051;-69
2023/08/26 03:13:23;;;;;;;48.63;46.17;;;;;;;;;;5103311;28;20081;-70
2023/08/26 03:15:48;;;;;;;44.17;41.88;;;;;;;;;;5100799;28;20032;-70
2023/08/26 03:18:14;;;;;;;40.67;38.58;;;;;;;;;;5099671;27;20069;-69
2023/08/26 03:20:39;;;;;;;41.80;39.65;;;;;;;;;;5105230;28;20493;-68
2023/08/26 03:23:04;;;;;;;39.50;37.45;;;;;;;;;;5096671;27;20028;-69
2023/08/26 03:25:30;;;;;;;40.58;38.50;;;;;;;;;;5103485;28;20075;-70
2023/08/26 03:27:55;;;;;;;47.72;45.30;;;;;;;;;;5099967;28;20035;-68
2023/08/26 03:30:20;;;;;;;46.85;44.42;;;;;;;;;;5098949;28;20031;-68
2023/08/26 03:32:46;;;;;;;44.83;42.47;;;;;;;;;;5103388;28;20577;-68
2023/08/26 03:35:11;;;;;;;46.17;43.42;;;;;;;;;;5099978;28;20032;-69
2023/08/26 03:37:36;;;;;;;45.85;43.30;;;;;;;;;;5085942;28;20035;-69
2023/08/26 03:40:06;;;;;;;45.90;43.47;;;;;;;;;;5097258;28;20101;-69
2023/08/26 03:42:32;;;;;;;42.50;40.33;;;;;;;;;;5102962;28;20094;-68
2023/08/26 03:44:57;;;;;;;43.47;41.28;;;;;;;;;;5099770;28;20425;-68
2023/08/26 03:47:22;;;;;;;41.10;38.90;;;;;;;;;;5101573;28;20023;-68
2023/08/26 03:49:48;;;;;;;40.53;38.38;;;;;;;;;;5084821;28;20034;-68
2023/08/26 03:52:13;;;;;;;40.45;38.38;;;;;;;;;;5076980;28;20462;-68
2023/08/26 03:54:39;;;;;;;40.25;38.15;;;;;;;;;;5084282;28;20023;-68
2023/08/26 03:57:04;;;;;;;39.30;37.05;;;;;;;;;;5079720;28;20035;-68
2023/08/26 03:59:29;;;;;;;40.13;38.03;;;;;;;;;;5099476;28;20381;-68
2023/08/26 04:01:55;;;;;;;39.80;37.75;;;;;;;;;;5084685;28;20043;-69
2023/08/26 04:04:20;;;;;;;37.90;35.92;;;;;;;;;;5096014;27;20036;-68
2023/08/26 04:06:45;;;;;;;41.67;39.50;;;;;;;;;;5089330;28;20046;-68
2023/08/26 04:09:11;;;;;;;38.45;36.45;;;;;;;;;;5098461;28;20035;-68
2023/08/26 04:11:37;;;;;;;37.08;35.10;;;;;;;;;;5103444;27;20115;-71
2023/08/26 04:14:02;;;;;;;39.35;37.30;;;;;;;;;;5101246;28;20102;-68
2023/08/26 04:16:28;;;;;;;38.20;36.20;;;;;;;;;;5097125;28;20034;-69
2023/08/26 04:18:54;;;;;;;37.60;35.65;;;;;;;;;;5102640;28;20059;-68
2023/08/26 04:21:19;;;;;;;40.13;37.95;;;;;;;;;;5076914;28;20044;-68
2023/08/26 04:23:45;;;;;;;37.58;35.63;;;;;;;;;;5101946;27;20042;-66
2023/08/26 04:26:10;;;;;;;37.75;35.78;;;;;;;;;;5099806;28;20470;-67
2023/08/26 04:28:35;;;;;;;36.97;35.00;;;;;;;;;;5098817;27;20035;-67
2023/08/26 04:31:01;;;;;;;36.13;34.28;;;;;;;;;;5101736;28;20039;-66
2023/08/26 04:33:27;;;;;;;38.22;36.25;;;;;;;;;;5096069;27;20332;-67
2023/08/26 04:35:52;;;;;;;37.33;35.35;;;;;;;;;;5083666;28;20039;-67
2023/08/26 04:38:17;;;;;;;34.33;32.40;;;;;;;;;;5096523;27;20778;-67
2023/08/26 04:40:43;;;;;;;35.80;33.95;;;;;;;;;;5081676;28;20043;-67
2023/08/26 04:43:10;;;;;;;35.63;33.78;;;;;;;;;;5097300;28;20036;-68
2023/08/26 04:45:37;;;;;;;35.17;33.25;;;;;;;;;;5099859;28;20028;-67
2023/08/26 04:48:04;;;;;;;32.70;30.92;;;;;;;;;;5101135;28;20028;-68
2023/08/26 04:50:29;;;;;;;33.63;31.30;;;;;;;;;;5099464;27;20484;-70
2023/08/26 04:52:55;;;;;;;33.63;31.88;;;;;;;;;;5101272;28;20037;-69
2023/08/26 04:55:20;;;;;;;33.50;31.73;;;;;;;;;;5096051;28;20686;-69
2023/08/26 04:57:46;;;;;;;33.20;31.48;;;;;;;;;;5102932;28;20058;-68
2023/08/26 05:00:12;;;;;;;36.92;35.05;;;;;;;;;;5098731;28;20035;-68
2023/08/26 05:02:38;;;;;;;32.55;30.85;;;;;;;;;;5083699;28;20059;-71
2023/08/26 05:05:04;;;;;;;31.63;29.98;;;;;;;;;;5103309;28;20358;-73
2023/08/26 05:07:30;;;;;;;29.23;27.67;;;;;;;;;;5096899;27;20036;-70
2023/08/26 05:09:56;;;;;;;33.83;32.05;;;;;;;;;;5102206;28;20059;-70
2023/08/26 05:12:22;;;;;;;30.52;28.92;;;;;;;;;;5094568;28;20481;-71
2023/08/26 05:14:48;;;;;;;27.15;25.58;;;;;;;;;;5102403;28;20074;-71
2023/08/26 05:17:13;;;;;;;27.08;25.63;;;;;;;;;;5097599;27;20489;-71
2023/08/26 05:19:38;;;;;;;26.35;24.95;;;;;;;;;;5078218;28;20035;-69
2023/08/26 05:22:04;;;;;;;28.00;26.50;;;;;;;;;;5100694;28;20042;-70
2023/08/26 05:24:30;;;;;;;25.75;24.38;;;;;;;;;;5098823;28;20155;-71
2023/08/26 05:26:56;;;;;;;28.00;26.48;;;;;;;;;;5101897;28;20031;-71
2023/08/26 05:29:21;;;;;;;28.38;26.75;;;;;;;;;;5098991;28;20084;-70
2023/08/26 05:31:46;;;;;;;27.48;25.48;;;;;;;;;;5097553;28;20667;-71
2023/08/26 05:34:12;;;;;;;27.25;25.75;;;;;;;;;;5099236;28;20370;-70
2023/08/26 05:36:37;;;;;;;25.77;24.38;;;;;;;;;;5097692;28;20042;-72
2023/08/26 05:39:03;;;;;;;29.30;27.77;;;;;;;;;;5100833;28;20031;-70
2023/08/26 05:41:28;;;;;;;30.85;29.23;;;;;;;;;;5095157;28;20692;-72
2023/08/26 05:43:54;;;;;;;30.80;29.20;;;;;;;;;;5099260;28;20101;-73
2023/08/26 05:46:19;;;;;;;30.35;28.77;;;;;;;;;;5079592;28;20170;-74
2023/08/26 05:48:45;;;;;;;34.97;33.08;;;;;;;;;;5097485;28;20031;-72
2023/08/26 05:51:10;;;;;;;33.15;31.40;;;;;;;;;;5102036;28;20065;-71
2023/08/26 05:53:36;;;;;;;33.60;31.85;;;;;;;;;;5094406;28;20040;-73
2023/08/26 05:56:01;;;;;;;29.45;27.90;;;;;;;;;;5099666;28;20124;-73
2023/08/26 05:58:27;;;;;;;29.52;27.98;;;;;;;;;;5102259;28;20036;-70
2023/08/26 06:00:52;;;;;;;32.00;30.17;;;;;;;;;;5096485;28;20032;-71
2023/08/26 06:03:18;;;;;;;31.10;29.45;;;;;;;;;;5101596;28;20583;-72
2023/08/26 06:05:43;;;;;;;33.08;31.35;;;;;;;;;;5097793;28;20031;-72
2023/08/26 06:08:09;;;;;;;40.15;38.08;;;;;;;;;;5075311;28;20031;-69
2023/08/26 06:10:34;;;;;;;43.20;40.90;;;;;;;;;;5093618;28;20067;-72
2023/08/26 06:13:00;;;;;;;63.33;60.17;;;;;;;;;;5076827;28;20067;-69
2023/08/26 06:15:25;;;;;;;54.65;51.90;;;;;;;;;;5100701;28;20032;-69
2023/08/26 06:17:50;;;;;;;60.75;57.63;;;;;;;;;;5075614;28;20035;-69
2023/08/26 06:20:16;;;;;;;62.58;59.42;;;;;;;;;;5101144;28;20369;-69
2023/08/26 06:22:45;;;;;;;72.05;68.47;;;;;;;;;;5094276;28;20059;-72
2023/08/26 06:25:11;;;;;;;75.55;71.80;;;;;;;;;;5093222;28;20205;-67
2023/08/26 06:27:37;;;;;;;85.60;81.28;;;;;;;;;;5097709;28;20044;-71
2023/08/26 06:30:03;;;;;;;89.35;84.80;;;;;;;;;;5097188;28;20082;-72
2023/08/26 06:32:29;;;;;;;83.15;79.00;;;;;;;;;;5098895;28;20476;-72
2023/08/26 06:34:55;;;;;;;76.25;72.50;;;;;;;;;;5078063;28;20928;-73
2023/08/26 06:37:20;;;;;;;81.38;77.32;;;;;;;;;;5097714;28;20458;-73
2023/08/26 06:39:46;;;;;;;89.82;85.40;;;;;;;;;;5099148;28;20032;-73
2023/08/26 06:42:11;;;;;;;76.95;73.10;;;;;;;;;;5095427;28;20057;-73
2023/08/26 06:44:37;;;;;;;67.07;63.72;;;;;;;;;;5102324;28;20366;-73
2023/08/26 06:47:02;;;;;;;62.17;59.03;;;;;;;;;;5078733;27;20032;-73
2023/08/26 06:49:28;;;;;;;83.13;79.00;;;;;;;;;;5084553;28;20119;-68
2023/08/26 06:51:53;;;;;;;60.95;57.90;;;;;;;;;;5102906;28;20162;-68
2023/08/26 06:54:18;;;;;;;62.05;58.97;;;;;;;;;;5099999;28;20085;-68
2023/08/26 06:56:44;;;;;;;83.30;79.18;;;;;;;;;;5105845;28;20023;-74
2023/08/26 06:59:09;;;;;;;92.72;88.15;;;;;;;;;;5098391;28;20031;-74
2023/08/26 07:01:35;;;;;;;61.85;58.75;;;;;;;;;;5101375;28;21221;-75
2023/08/26 07:04:05;;;;;;;82.10;78.03;;;;;;;;;;5080992;28;20693;-68
2023/08/26 07:06:31;;;;;;;89.63;85.20;;;;;;;;;;5097298;27;20096;-68
2023/08/26 07:08:56;;;;;;;75.70;71.95;;;;;;;;;;5099989;28;20069;-68
2023/08/26 07:11:22;;;;;;;29.52;27.95;;;;;;;;;;5102047;28;20062;-75
2023/08/26 07:13:47;;;;;;;85.47;81.25;;;;;;;;;;5098443;27;20545;-68
2023/08/26 07:16:12;;;;;;;69.95;66.47;;;;;;;;;;5102606;28;20062;-67
2023/08/26 07:18:38;;;;;;;25.27;23.95;;;;;;;;;;5099604;28;20067;-68
2023/08/26 07:21:03;;;;;;;18.80;17.80;;;;;;;;;;5103135;28;20444;-73
2023/08/26 07:23:28;;;;;;;22.65;21.45;;;;;;;;;;5062130;28;20032;-69
2023/08/26 07:25:54;;;;;;;33.53;31.80;;;;;;;;;;5105333;28;20039;-74
2023/08/26 07:28:19;;;;;;;23.92;22.52;;;;;;;;;;5100190;28;20036;-68
2023/08/26 07:30:44;;;;;;;17.75;16.75;;;;;;;;;;5080340;28;20039;-68
2023/08/26 07:33:10;;;;;;;41.10;39.00;;;;;;;;;;5103371;28;20032;-69
2023/08/26 07:35:35;;;;;;;74.00;70.30;;;;;;;;;;5102483;27;20858;-70
2023/08/26 07:38:01;;;;;;;75.30;71.50;;;;;;;;;;5101364;28;20092;-69
2023/08/26 07:40:26;;;;;;;78.03;74.18;;;;;;;;;;5079707;27;20477;-68
2023/08/26 07:42:51;;;;;;;63.45;60.28;;;;;;;;;;5103014;28;20031;-69
2023/08/26 07:45:17;;;;;;;34.53;32.72;;;;;;;;;;5101141;27;20677;-69
2023/08/26 07:47:43;;;;;;;84.57;80.35;;;;;;;;;;5079475;27;20069;-69
2023/08/26 07:50:09;;;;;;;57.72;54.83;;;;;;;;;;5071054;27;20035;-74
2023/08/26 07:52:36;;;;;;;74.53;70.80;;;;;;;;;;5098703;27;20035;-73
2023/08/26 07:55:01;;;;;;;98.05;93.20;;;;;;;;;;5084894;28;20039;-69
2023/08/26 07:57:27;;;;;;;96.55;91.80;;;;;;;;;;5096930;27;20035;-70
2023/08/26 07:59:52;;;;;;;76.03;72.25;;;;;;;;;;5103383;28;20031;-73
2023/08/26 08:02:18;;;;;;;61.90;58.83;;;;;;;;;;5096876;28;20517;-73
2023/08/26 08:04:44;;;;;;;32.85;31.15;;;;;;;;;;5101296;27;20038;-69
2023/08/26 08:07:09;;;;;;;34.97;33.17;;;;;;;;;;5081545;28;20039;-68
2023/08/26 08:09:35;;;;;;;23.65;22.38;;;;;;;;;;5097971;28;20064;-69
2023/08/26 08:12:00;;;;;;;13.80;13.00;;;;;;;;;;5103382;28;20039;-71
2023/08/26 08:14:26;;;;;;;12.50;11.80;;;;;;;;;;5098538;27;20039;-69
2023/08/26 08:16:51;;;;;;;14.88;14.02;;;;;;;;;;5102170;28;20499;-69
2023/08/26 08:19:16;;;;;;;17.17;16.23;;;;;;;;;;5103377;28;20051;-69
2023/08/26 08:21:42;;;;;;;16.75;15.65;;;;;;;;;;5101914;28;20036;-69
2023/08/26 08:24:07;;;;;;;16.33;15.43;;;;;;;;;;5103338;28;20031;-69
2023/08/26 08:26:33;;;;;;;16.15;15.25;;;;;;;;;;5102603;28;20066;-70
2023/08/26 08:28:59;;;;;;;13.98;13.18;;;;;;;;;;5103784;28;20462;-71
2023/08/26 08:31:24;;;;;;;16.25;15.35;;;;;;;;;;5100746;28;20020;-70
2023/08/26 08:33:50;;;;;;;21.27;20.08;;;;;;;;;;5103506;28;20035;-68
2023/08/26 08:36:15;;;;;;;20.98;19.77;;;;;;;;;;5104135;28;20399;-72
2023/08/26 08:38:40;;;;;;;24.15;22.75;;;;;;;;;;5101880;28;20425;-70
2023/08/26 08:41:06;;;;;;;24.33;23.02;;;;;;;;;;5103132;28;20035;-70
2023/08/26 08:43:37;;;;;;;43.55;41.35;;;;;;;;;;5102011;28;20040;-72
2023/08/26 08:46:03;;;;;;;32.95;31.25;;;;;;;;;;5101969;28;20131;-73
2023/08/26 08:48:32;;;;;;;24.55;23.25;;;;;;;;;;5100917;28;20110;-73
2023/08/26 08:50:58;;;;;;;29.05;27.55;;;;;;;;;;5102419;28;20059;-70
2023/08/26 08:53:28;;;;;;;61.42;58.38;;;;;;;;;;5079080;28;20062;-71
2023/08/26 08:55:54;;;;;;;;;;;;;;;;;;5082669;28;20043;-73
2023/08/26 08:58:21;;;;;;;32.35;30.65;;;;;;;;;;5101889;28;19916;-69
2023/08/26 09:00:46;;;;;;;26.88;25.48;;;;;;;;;;5102476;28;20047;-72
2023/08/26 09:03:12;;;;;;;23.52;22.23;;;;;;;;;;5102531;28;20050;-71
2023/08/26 09:05:38;;;;;;;25.63;24.27;;;;;;;;;;5101467;28;20097;-73
2023/08/26 09:08:06;;;;;;;38.33;36.38;;;;;;;;;;5101996;28;20042;-70
2023/08/26 09:10:32;;;;;;;28.10;26.60;;;;;;;;;;5099597;28;20055;-73
2023/08/26 09:12:58;;;;;;;33.95;32.15;;;;;;;;;;5081815;28;20031;-71
2023/08/26 09:15:25;;;;;;;37.95;36.03;;;;;;;;;;5083021;28;20042;-71
2023/08/26 09:17:56;;;;;;;43.00;40.38;;;;;;;;;;5101445;28;20043;-71
2023/08/26 09:20:21;;;;;;;55.45;52.67;;;;;;;;;;5101672;28;20438;-72
2023/08/26 09:22:47;;;;;;;47.15;44.75;;;;;;;;;;5100062;28;20137;-69
2023/08/26 09:25:12;;;;;;;48.55;46.03;;;;;;;;;;5102107;28;20032;-72
2023/08/26 09:27:42;;;;;;;65.43;62.15;;;;;;;;;;5099585;28;20124;-69
2023/08/26 09:30:08;;;;;;;60.55;57.53;;;;;;;;;;5102570;28;20023;-71
2023/08/26 09:32:35;;;;;;;57.72;54.25;;;;;;;;;;5100883;28;20469;-71
2023/08/26 09:35:11;;;;;;;51.17;48.63;;;;;;;;;;5082717;28;20032;-72
2023/08/26 09:37:39;;;;;;;39.42;37.42;;;;;;;;;;5081075;28;20043;-69
2023/08/26 09:40:05;;;;;;;87.05;82.78;;;;;;;;;;5101724;28;20077;-72
2023/08/26 09:42:31;;;;;;;79.50;75.53;;;;;;;;;;5102132;28;20104;-72
2023/08/26 09:44:57;;;;;;;43.40;41.17;;;;;;;;;;5082822;28;20486;-72
2023/08/26 09:47:27;;;;;;;43.42;41.25;;;;;;;;;;5102931;28;20291;-68
2023/08/26 09:49:52;;;;;;;58.45;55.53;;;;;;;;;;5098022;28;20067;-68
2023/08/26 09:52:18;;;;;;;81.13;77.13;;;;;;;;;;5100669;28;20147;-70
2023/08/26 09:54:45;;;;;;;69.90;66.43;;;;;;;;;;5095582;28;20041;-69
2023/08/26 09:57:11;;;;;;;74.60;70.93;;;;;;;;;;5098128;28;20311;-69
2023/08/26 09:59:37;;;;;;;123.53;117.47;;;;;;;;;;5100452;28;20046;-69
2023/08/26 10:02:06;;;;;;;114.38;108.80;;;;;;;;;;5100250;28;20625;-69
2023/08/26 10:04:36;;;;;;;127.90;121.65;;;;;;;;;;5102274;28;20111;-70
2023/08/26 10:07:02;;;;;;;;;;;;;;;;;;5100617;28;20055;-69
2023/08/26 10:09:33;;;;;;;84.18;80.00;;;;;;;;;;5079132;28;20426;-69
2023/08/26 10:12:05;;;;;;;74.88;71.18;;;;;;;;;;5098459;28;20106;-69
2023/08/26 10:14:32;;;;;;;73.80;70.13;;;;;;;;;;5099662;28;20035;-69
2023/08/26 10:17:00;;;;;;;115.20;109.47;;;;;;;;;;5102498;28;20167;-68
2023/08/26 10:19:28;;;;;;;104.95;99.78;;;;;;;;;;5084726;28;20031;-69
2023/08/26 10:21:54;;;;;;;75.63;71.88;;;;;;;;;;5105019;28;20040;-69
2023/08/26 10:24:20;;;;;;;54.85;52.10;;;;;;;;;;5085901;28;20063;-69
2023/08/26 10:26:46;;;;;;;116.38;110.68;;;;;;;;;;5105005;28;20064;-69
2023/08/26 10:29:12;;;;;;;71.32;67.53;;;;;;;;;;5086696;28;20028;-69
2023/08/26 10:31:43;;;;;;;65.75;62.45;;;;;;;;;;5104972;28;20039;-69
2023/08/26 10:34:08;;;;;;;113.55;107.85;;;;;;;;;;5103335;28;20028;-70
2023/08/26 10:36:38;;;;;;;117.53;111.80;;;;;;;;;;5104860;28;20054;-69
2023/08/26 10:39:04;;;;;;;67.28;63.92;;;;;;;;;;5104379;28;20051;-70
2023/08/26 10:41:30;;;;;;;126.07;119.90;;;;;;;;;;5103950;27;20050;-69
2023/08/26 10:43:58;;;;;;;50.97;48.38;;;;;;;;;;5104780;28;20062;-69
2023/08/26 10:46:54;;;;;;;96.22;91.50;;;;;;;;;;5104241;28;20118;-70
2023/08/26 10:49:28;;;;;;;74.10;70.43;;;;;;;;;;5104038;28;20040;-69
2023/08/26 10:52:07;;;;;;;35.00;33.20;;;;;;;;;;5104527;27;20032;-69
2023/08/26 10:54:34;;;;;;;37.42;35.30;;;;;;;;;;5105492;28;20462;-69
2023/08/26 10:57:04;;;;;;;61.17;58.08;;;;;;;;;;5104855;28;20153;-69
2023/08/26 10:59:42;;;;;;;57.55;54.65;;;;;;;;;;5082078;28;20046;-70
2023/08/26 11:02:13;;;;;;;101.80;96.82;;;;;;;;;;5103538;28;20063;-69
2023/08/26 11:04:42;;;;;;;;;;;;;;;;;;5101817;28;20034;-69
2023/08/26 11:07:14;;;;;;;80.05;75.93;;;;;;;;;;5104973;27;19981;-69
2023/08/26 11:09:40;;;;;;;41.33;39.20;;;;;;;;;;5104682;28;20671;-69
2023/08/26 11:12:22;;;;;;;51.50;48.90;;;;;;;;;;5085089;28;20043;-69
2023/08/26 11:14:48;;;;;;;65.40;62.13;;;;;;;;;;5102994;28;20034;-70
2023/08/26 11:17:13;;;;;;;121.57;115.63;;;;;;;;;;5104000;28;20039;-69
2023/08/26 11:19:39;;;;;;;131.77;125.30;;;;;;;;;;5101522;28;20343;-69
2023/08/26 11:22:04;;;;;;;102.70;97.65;;;;;;;;;;5103409;28;20547;-68
2023/08/26 11:24:30;;;;;;;119.38;113.55;;;;;;;;;;5066632;28;20282;-67
2023/08/26 11:26:55;;;;;;;128.52;122.20;;;;;;;;;;5102469;28;20108;-70
2023/08/26 11:29:21;;;;;;;132.07;125.63;;;;;;;;;;5104291;28;20477;-70
2023/08/26 11:31:46;;;;;;;70.78;67.25;;;;;;;;;;5100691;28;20458;-70
2023/08/26 11:34:12;;;;;;;57.45;54.58;;;;;;;;;;5103807;27;20086;-68
2023/08/26 11:36:37;;;;;;;66.93;63.50;;;;;;;;;;5084326;28;20027;-70
2023/08/26 11:39:03;;;;;;;133.52;126.95;;;;;;;;;;5104034;28;20515;-68
2023/08/26 11:41:28;;;;;;;100.75;95.78;;;;;;;;;;5063239;28;20058;-70
2023/08/26 11:43:53;;;;;;;35.72;33.90;;;;;;;;;;5095299;27;20036;-70
2023/08/26 11:46:19;;;;;;;32.90;31.20;;;;;;;;;;5082084;28;20024;-67
2023/08/26 11:48:44;;;;;;;39.63;37.60;;;;;;;;;;5098585;28;20039;-70
2023/08/26 11:51:10;;;;;;;48.53;46.08;;;;;;;;;;5093021;28;20123;-67
2023/08/26 11:53:36;;;;;;;35.47;33.67;;;;;;;;;;5081261;28;20036;-68
2023/08/26 11:56:01;;;;;;;57.70;54.80;;;;;;;;;;5103159;28;20114;-68
2023/08/26 11:58:27;;;;;;;38.50;36.55;;;;;;;;;;5066386;28;20028;-67
2023/08/26 12:00:54;;;;;;;34.25;32.50;;;;;;;;;;5080624;28;20027;-68
2023/08/26 12:03:19;;;;;;;31.55;29.95;;;;;;;;;;5102637;28;20034;-68
2023/08/26 12:05:48;;;;;;;28.48;26.98;;;;;;;;;;5103052;28;20024;-67
2023/08/26 12:08:19;;;;;;;30.85;29.25;;;;;;;;;;5102401;28;20027;-68
2023/08/26 12:10:49;;;;;;;31.30;29.65;;;;;;;;;;5102090;28;20077;-68
2023/08/26 12:13:15;;;;;;;34.35;32.55;;;;;;;;;;5101488;28;20456;-68
2023/08/26 12:15:41;;;;;;;32.22;30.58;;;;;;;;;;5098519;28;20118;-67
2023/08/26 12:18:06;;;;;;;27.08;25.67;;;;;;;;;;5096682;28;20058;-67
2023/08/26 12:20:32;;;;;;;18.60;17.60;;;;;;;;;;5100670;28;20040;-68
2023/08/26 12:23:03;;;;;;;28.27;26.77;;;;;;;;;;5098106;28;20128;-68
2023/08/26 12:25:32;;;;;;;;;;;;;;;;;;5098823;28;20035;-67
2023/08/26 12:28:19;;;;;;;25.90;24.52;;;;;;;;;;5094231;28;20422;-68
2023/08/26 12:30:47;;;;;;;19.00;17.90;;;;;;;;;;5081188;28;20059;-69
2023/08/26 12:33:14;;;;;;;18.70;17.42;;;;;;;;;;5098638;28;20058;-68
2023/08/26 12:35:39;;;;;;;26.08;24.67;;;;;;;;;;5100721;28;20378;-70
2023/08/26 12:38:06;;;;;;;20.02;18.92;;;;;;;;;;5102706;28;20039;-68
2023/08/26 12:40:37;;;;;;;16.80;15.90;;;;;;;;;;5100384;28;20039;-69
2023/08/26 12:43:04;;;;;;;16.15;15.25;;;;;;;;;;5100754;28;20035;-70
2023/08/26 12:45:34;;;;;;;17.67;16.67;;;;;;;;;;5101814;28;20039;-69
2023/08/26 12:48:01;;;;;;;17.15;16.17;;;;;;;;;;5097467;28;20041;-68
2023/08/26 12:50:26;;;;;;;15.98;15.07;;;;;;;;;;5081118;28;20032;-70
2023/08/26 12:52:51;;;;;;;17.88;16.88;;;;;;;;;;5083030;28;20032;-68
2023/08/26 12:55:17;;;;;;;18.48;17.38;;;;;;;;;;5102904;28;20023;-71
2023/08/26 12:57:43;;;;;;;17.25;16.25;;;;;;;;;;5080780;28;20032;-69
2023/08/26 13:00:09;;;;;;;17.42;16.42;;;;;;;;;;5101593;28;20036;-70
2023/08/26 13:02:38;;;;;;;16.67;15.77;;;;;;;;;;5102554;27;20116;-69
2023/08/26 13:05:08;;;;;;;15.95;15.05;;;;;;;;;;5100039;28;20038;-68
2023/08/26 13:07:34;;;;;;;17.40;16.40;;;;;;;;;;5098974;28;20085;-70
2023/08/26 13:10:00;;;;;;;15.85;14.95;;;;;;;;;;5102239;28;20075;-68
2023/08/26 13:12:25;;;;;;;16.73;15.82;;;;;;;;;;5080741;27;20485;-69
2023/08/26 13:14:50;;;;;;;17.10;16.17;;;;;;;;;;5099557;28;20450;-68
2023/08/26 13:17:16;;;;;;;15.23;14.35;;;;;;;;;;5101895;28;20055;-67
2023/08/26 13:19:41;;;;;;;18.08;17.08;;;;;;;;;;5101599;28;20036;-68
2023/08/26 13:22:07;;;;;;;17.92;16.92;;;;;;;;;;5081988;28;20123;-70
2023/08/26 13:24:32;;;;;;;16.80;15.80;;;;;;;;;;5100912;28;20403;-70
2023/08/26 13:26:58;;;;;;;17.13;16.13;;;;;;;;;;5100537;28;20035;-67
2023/08/26 13:29:23;;;;;;;19.10;18.10;;;;;;;;;;5100524;28;20054;-69
2023/08/26 13:31:49;;;;;;;18.20;17.20;;;;;;;;;;5100384;28;20039;-68
2023/08/26 13:34:14;;;;;;;15.68;14.77;;;;;;;;;;5099841;28;20047;-71
2023/08/26 13:36:41;;;;;;;19.13;18.10;;;;;;;;;;5097794;28;20477;-70
2023/08/26 13:39:07;;;;;;;16.70;15.80;;;;;;;;;;5101234;28;20039;-70
2023/08/26 13:41:32;;;;;;;16.38;15.48;;;;;;;;;;5100553;28;20088;-70
2023/08/26 13:43:58;;;;;;;18.20;17.20;;;;;;;;;;5100202;28;20113;-68
2023/08/26 13:46:24;;;;;;;18.13;17.13;;;;;;;;;;5102495;28;20024;-68
2023/08/26 13:48:49;;;;;;;19.23;18.20;;;;;;;;;;5099250;28;20520;-70
2023/08/26 13:51:18;;;;;;;19.52;18.42;;;;;;;;;;5102810;28;21281;-69
2023/08/26 13:53:43;;;;;;;17.77;16.77;;;;;;;;;;5102790;28;20070;-69
2023/08/26 13:56:09;;;;;;;16.73;15.63;;;;;;;;;;5105129;28;20122;-68
2023/08/26 13:58:34;;;;;;;16.60;15.70;;;;;;;;;;5105808;28;20161;-69
2023/08/26 14:00:59;;;;;;;17.70;16.70;;;;;;;;;;5086699;28;20090;-72
2023/08/26 14:03:25;;;;;;;16.13;15.23;;;;;;;;;;5105870;28;20039;-70
2023/08/26 14:05:51;;;;;;;16.73;15.82;;;;;;;;;;5085214;28;20458;-70
2023/08/26 14:08:16;;;;;;;17.60;16.60;;;;;;;;;;5104819;28;20360;-70
2023/08/26 14:10:42;;;;;;;17.70;16.60;;;;;;;;;;5104471;28;20030;-68